Time;durP1;ratioP1;P1;durP2;ratioP2;P2;SDS_P1;SDS_P2;PMS_P1;PMS_P2;Temp;Humidity;BMP_temperature;BMP_pressure;BME280_temperature;BME280_humidity;BME280_pressure;Samples;Min_cycle;Max_cycle;Signal;HPM_P1;HPM_P2
2022/05/13 00:00:07;;;;;;;2.30;1.13;;;;;;;11.51;61.83;98247.25;5056403;28;20553;-78
2022/05/13 00:02:34;;;;;;;0.80;0.80;;;;;;;11.42;61.42;98244.84;5056547;28;20049;-80
2022/05/13 00:05:03;;;;;;;1.85;0.80;;;;;;;11.44;60.98;98270.09;5056047;28;20072;-78
2022/05/13 00:07:30;;;;;;;5.90;0.95;;;;;;;11.45;61.52;98253.47;5067796;28;20040;-78
2022/05/13 00:09:57;;;;;;;2.15;0.90;;;;;;;11.42;61.21;98261.41;5056489;28;20071;-78
2022/05/13 00:12:25;;;;;;;1.80;1.02;;;;;;;11.32;60.84;98248.63;5055494;28;20048;-78
2022/05/13 00:14:54;;;;;;;2.88;0.80;;;;;;;11.30;61.61;98266.09;5055299;28;20490;-78
2022/05/13 00:17:22;;;;;;;4.00;0.88;;;;;;;11.21;61.09;98273.25;5055659;28;20498;-79
2022/05/13 00:19:49;;;;;;;1.20;0.88;;;;;;;11.18;61.27;98281.16;5055060;28;20395;-78
2022/05/13 00:22:19;;;;;;;1.77;0.90;;;;;;;11.07;61.94;98270.13;5055223;28;20505;-78
2022/05/13 00:24:54;;;;;;;2.20;1.00;;;;;;;11.05;61.49;98303.25;5055466;28;20045;-77
2022/05/13 00:27:22;;;;;;;1.10;0.85;;;;;;;11.02;62.17;98305.94;5054199;28;20504;-79
2022/05/13 00:29:50;;;;;;;1.20;0.90;;;;;;;10.93;62.19;98283.50;5054898;28;20037;-78
2022/05/13 00:32:18;;;;;;;2.35;1.10;;;;;;;10.94;62.04;98290.44;5055208;28;20044;-77
2022/05/13 00:34:45;;;;;;;2.28;1.10;;;;;;;10.88;61.98;98293.19;5054843;28;20053;-79
2022/05/13 00:37:12;;;;;;;1.42;1.00;;;;;;;10.45;62.52;98208.00;5055349;28;20063;-80
2022/05/13 00:39:39;;;;;;;1.27;0.82;;;;;;;10.80;62.62;98295.16;5055024;28;20132;-77
2022/05/13 00:42:11;;;;;;;3.45;1.00;;;;;;;10.82;63.09;98304.66;5053832;28;20082;-76
2022/05/13 00:44:38;;;;;;;3.25;1.20;;;;;;;10.73;62.50;98304.84;5054995;28;20045;-77
2022/05/13 00:47:05;;;;;;;4.05;1.10;;;;;;;10.75;63.37;98296.97;5054881;28;20041;-77
2022/05/13 00:49:34;;;;;;;1.80;1.20;;;;;;;10.70;63.04;98289.25;5053901;28;20073;-79
2022/05/13 00:52:03;;;;;;;2.55;1.00;;;;;;;10.76;62.78;98272.59;5053516;28;20299;-77
2022/05/13 00:54:32;;;;;;;1.45;1.10;;;;;;;10.86;63.20;98279.31;5053653;28;20037;-78
2022/05/13 00:57:01;;;;;;;1.73;1.35;;;;;;;11.05;62.69;98290.19;5053300;28;20071;-77
2022/05/13 00:59:33;;;;;;;1.98;1.13;;;;;;;11.14;62.96;98294.34;5054966;28;20041;-78
2022/05/13 01:02:00;;;;;;;;;;;;;;;11.00;63.34;98292.06;5055343;28;20069;-78
2022/05/13 01:04:30;;;;;;;1.42;1.27;;;;;;;11.06;63.24;98284.94;5054752;28;19924;-78
2022/05/13 01:07:03;;;;;;;1.30;1.20;;;;;;;11.17;63.08;98302.13;5054357;28;20139;-79
2022/05/13 01:09:35;;;;;;;3.47;1.20;;;;;;;11.22;63.24;98308.94;5054776;28;20056;-78
2022/05/13 01:12:08;;;;;;;2.08;1.42;;;;;;;11.26;63.14;98315.81;5054621;28;20072;-77
2022/05/13 01:14:42;;;;;;;1.40;1.10;;;;;;;11.25;63.36;98300.19;5054102;28;20047;-77
2022/05/13 01:20:28;;;;;;;1.88;1.40;;;;;;;11.30;63.57;98311.38;5058853;28;20049;-79
2022/05/13 01:23:01;;;;;;;2.53;1.40;;;;;;;11.14;63.68;98294.34;5052931;28;20051;-77
2022/05/13 01:25:33;;;;;;;3.83;1.63;;;;;;;11.35;63.33;98324.34;5054566;28;20044;-78
2022/05/13 01:28:12;;;;;;;2.78;1.60;;;;;;;11.37;63.14;98335.63;5054265;28;20132;-77
2022/05/13 01:30:47;;;;;;;1.70;1.53;;;;;;;11.37;63.59;98312.94;5054042;28;20048;-78
2022/05/13 01:33:15;;;;;;;3.58;1.58;;;;;;;11.39;63.34;98326.84;5054278;28;20071;-80
2022/05/13 01:35:46;;;;;;;4.22;1.63;;;;;;;11.47;63.15;98331.88;5053907;28;20080;-79
2022/05/13 01:38:14;;;;;;;3.47;1.60;;;;;;;11.27;62.97;98299.25;5054138;28;20052;-79
2022/05/13 01:40:41;;;;;;;1.77;1.60;;;;;;;11.50;62.89;98331.81;5053700;28;20131;-76
2022/05/13 01:43:08;;;;;;;3.03;1.50;;;;;;;11.52;63.08;98348.31;5053672;28;20427;-77
2022/05/13 01:45:36;;;;;;;1.42;1.33;;;;;;;11.38;62.88;98321.63;5053525;28;20063;-76
2022/05/13 01:48:05;;;;;;;3.38;1.50;;;;;;;11.56;62.47;98349.97;5052402;28;20040;-77
2022/05/13 01:50:33;;;;;;;3.50;1.65;;;;;;;11.50;62.32;98321.34;5053480;28;20228;-78
2022/05/13 01:53:00;;;;;;;1.83;1.40;;;;;;;11.48;62.36;98318.75;5052336;28;20055;-76
2022/05/13 01:55:27;;;;;;;1.67;1.20;;;;;;;11.51;62.17;98328.31;5053874;28;20067;-77
2022/05/13 01:57:54;;;;;;;2.80;1.40;;;;;;;11.58;62.06;98347.31;5053560;28;20045;-80
2022/05/13 02:00:22;;;;;;;2.38;1.50;;;;;;;11.64;61.72;98350.63;5053719;28;20072;-79
2022/05/13 02:05:36;;;;;;;5.68;1.30;;;;;;;11.66;61.71;98351.47;5053347;28;20083;-78
2022/05/13 02:08:03;;;;;;;1.83;1.40;;;;;;;11.70;61.98;98349.59;5053404;28;20068;-80
2022/05/13 02:10:30;;;;;;;5.30;2.05;;;;;;;11.63;61.55;98311.44;5051668;28;20500;-78
2022/05/13 02:12:57;;;;;;;2.33;1.40;;;;;;;11.53;61.71;98302.97;5061521;28;20155;-80
2022/05/13 02:15:24;;;;;;;4.18;1.25;;;;;;;11.67;61.47;98331.38;5053454;28;20044;-78
2022/05/13 02:17:51;;;;;;;3.13;1.38;;;;;;;11.71;61.10;98346.09;5055515;28;20048;-78
2022/05/13 02:20:18;;;;;;;2.10;1.30;;;;;;;11.72;61.28;98353.03;5053130;28;20044;-79
2022/05/13 02:22:45;;;;;;;4.43;1.40;;;;;;;11.78;60.87;98355.50;5052946;28;20056;-78
2022/05/13 02:25:13;;;;;;;4.30;1.52;;;;;;;11.77;60.45;98340.72;5053036;28;20128;-79
2022/05/13 02:27:40;;;;;;;1.70;1.20;;;;;;;12.02;59.81;98347.94;5053042;28;20053;-79
2022/05/13 02:30:08;;;;;;;4.75;1.23;;;;;;;12.04;59.12;98343.53;5056207;28;20095;-78
2022/05/13 02:32:35;;;;;;;1.20;1.10;;;;;;;12.03;58.71;98347.06;5083212;28;20040;-77
2022/05/13 02:35:05;;;;;;;3.53;1.40;;;;;;;12.04;58.67;98354.00;5072558;28;20060;-78
2022/05/13 02:37:32;;;;;;;2.83;1.30;;;;;;;12.16;58.35;98368.53;5072808;28;20139;-81
2022/05/13 02:39:59;;;;;;;2.53;1.13;;;;;;;12.19;58.27;98374.53;5072650;28;20040;-79
2022/05/13 02:42:26;;;;;;;2.30;1.40;;;;;;;12.38;57.92;98381.91;5073166;28;20547;-81
2022/05/13 02:44:53;;;;;;;2.47;1.10;;;;;;;13.62;54.14;98365.09;5072793;28;20044;-78
2022/05/13 02:47:19;;;;;;;1.30;1.20;;;;;;;13.05;54.86;98329.28;5072899;28;20040;-78
2022/05/13 02:49:47;;;;;;;3.97;1.27;;;;;;;12.90;55.54;98385.63;5072735;28;20045;-78
2022/05/13 02:52:13;;;;;;;2.50;1.40;;;;;;;12.80;56.31;98382.44;5072886;28;20139;-79
2022/05/13 02:54:40;;;;;;;1.50;1.20;;;;;;;12.58;55.83;98342.88;5062039;28;20041;-79
2022/05/13 02:57:07;;;;;;;2.97;1.65;;;;;;;12.77;56.14;98377.28;5034638;28;20056;-80
2022/05/13 02:59:34;;;;;;;3.72;1.40;;;;;;;12.82;55.88;98382.38;5043712;28;20045;-78
2022/05/13 03:02:01;;;;;;;2.05;1.25;;;;;;;12.91;55.49;98380.38;5052484;28;20040;-79
2022/05/13 03:04:29;;;;;;;4.07;1.15;;;;;;;12.99;55.38;98387.13;5052795;28;20049;-79
2022/05/13 03:06:57;;;;;;;1.98;1.33;;;;;;;12.97;55.57;98391.56;5044288;28;20040;-79
2022/05/13 03:09:25;;;;;;;4.72;1.60;;;;;;;13.39;54.36;98397.28;5048848;28;20052;-78
2022/05/13 03:11:52;;;;;;;1.50;1.20;;;;;;;16.26;47.21;98396.38;5033094;28;20551;-78
2022/05/13 03:14:19;;;;;;;3.45;1.10;;;;;;;15.35;48.44;98425.50;5015215;28;20046;-81
2022/05/13 03:16:46;;;;;;;2.42;0.95;;;;;;;14.82;49.63;98402.97;5032672;28;20081;-78
2022/05/13 03:19:15;;;;;;;4.28;1.50;;;;;;;14.07;51.37;98405.59;5015759;28;20041;-78
2022/05/13 03:21:42;;;;;;;3.30;1.40;;;;;;;13.75;52.55;98390.94;5032900;28;20136;-78
2022/05/13 03:24:09;;;;;;;1.67;1.08;;;;;;;15.91;47.25;98398.69;5033169;28;20375;-78
2022/05/13 03:26:36;;;;;;;4.32;1.10;;;;;;;17.52;43.29;98397.72;5037146;28;20441;-78
2022/05/13 03:29:04;;;;;;;1.38;1.13;;;;;;;18.80;40.56;98406.25;5036159;28;20091;-76
2022/05/13 03:31:34;;;;;;;2.53;1.65;;;;;;;20.81;36.64;98379.78;5051248;28;20077;-80
2022/05/13 03:34:01;;;;;;;4.00;1.60;;;;;;;21.48;34.28;98388.81;5056172;28;20037;-81
2022/05/13 03:36:29;;;;;;;3.63;1.33;;;;;;;20.27;36.96;98388.31;5073134;28;20053;-79
2022/05/13 03:38:56;;;;;;;2.72;1.40;;;;;;;21.53;34.47;98385.88;5075325;28;20127;-80
2022/05/13 03:41:24;;;;;;;4.45;1.10;;;;;;;23.57;30.83;98408.25;5073355;28;20052;-78
2022/05/13 03:43:50;;;;;;;2.83;1.50;;;;;;;25.51;27.85;98385.38;5084931;28;20037;-77
2022/05/13 03:46:17;;;;;;;3.58;1.73;;;;;;;26.93;25.35;98393.09;5077713;28;20048;-80
2022/05/13 03:48:46;;;;;;;2.80;1.20;;;;;;;23.90;28.61;98370.28;5076509;28;20040;-81
2022/05/13 03:51:15;;;;;;;2.00;1.10;;;;;;;21.69;31.41;98388.38;5076743;28;20466;-77
2022/05/13 03:53:41;;;;;;;2.67;1.02;;;;;;;19.78;34.59;98384.09;5075875;28;20056;-78
2022/05/13 03:56:10;;;;;;;2.90;1.20;;;;;;;18.08;37.78;98386.16;5075628;28;20044;-80
2022/05/13 03:58:39;;;;;;;4.28;1.25;;;;;;;18.20;38.01;98419.06;5075638;28;20040;-79
2022/05/13 04:01:07;;;;;;;2.67;1.50;;;;;;;18.16;38.25;98415.72;5075683;28;20473;-79
2022/05/13 04:03:34;;;;;;;4.78;1.23;;;;;;;18.20;37.87;98405.84;5076123;28;20041;-82
2022/05/13 04:08:56;;;;;;;3.70;1.27;;;;;;;17.38;39.20;98416.88;5075562;28;20048;-80
2022/05/13 04:11:37;;;;;;;3.28;1.40;;;;;;;17.12;39.61;98411.03;5074057;28;20036;-79
2022/05/13 04:16:57;;;;;;;4.85;1.25;;;;;;;16.92;40.09;98443.56;5076877;28;20083;-78
2022/05/13 04:19:26;;;;;;;3.58;1.15;;;;;;;16.55;40.40;98394.25;5075736;28;20040;-78
2022/05/13 04:21:53;;;;;;;5.70;1.52;;;;;;;16.92;39.98;98419.00;5074351;28;20060;-80
2022/05/13 04:24:20;;;;;;;2.42;1.35;;;;;;;16.71;40.58;98450.66;5073924;28;20068;-80
2022/05/13 04:26:49;;;;;;;4.63;1.35;;;;;;;16.34;40.84;98396.03;5074321;28;20040;-83
2022/05/13 04:29:17;;;;;;;3.65;1.15;;;;;;;16.42;41.23;98451.91;5073344;28;20068;-79
2022/05/13 04:31:45;;;;;;;3.58;1.13;;;;;;;16.40;41.55;98443.22;5072979;28;20051;-78
2022/05/13 04:34:14;;;;;;;4.00;1.20;;;;;;;16.42;40.93;98436.09;5073945;28;20052;-79
2022/05/13 04:36:41;;;;;;;2.53;1.10;;;;;;;16.11;41.33;98440.03;5073523;28;20048;-80
2022/05/13 04:39:10;;;;;;;4.85;1.38;;;;;;;15.82;42.62;98445.63;5073991;28;20481;-80
2022/05/13 04:44:26;;;;;;;5.25;1.40;;;;;;;15.51;44.05;98454.72;5075010;28;20135;-79
2022/05/13 04:46:55;;;;;;;2.97;1.50;;;;;;;15.55;43.17;98467.69;5074699;28;20045;-82
2022/05/13 04:49:23;;;;;;;3.35;1.35;;;;;;;15.72;43.23;98477.59;5075091;28;20064;-81
2022/05/13 04:51:54;;;;;;;7.57;1.83;;;;;;;15.62;42.74;98468.31;5074938;28;20044;-81
2022/05/13 04:54:24;;;;;;;3.10;1.17;;;;;;;15.56;42.21;98477.28;5076174;28;20094;-80
2022/05/13 04:56:51;;;;;;;3.97;1.20;;;;;;;15.57;42.53;98484.28;5083591;28;20052;-79
2022/05/13 04:59:20;;;;;;;5.72;1.40;;;;;;;15.28;43.25;98481.91;5075012;28;20135;-78
2022/05/13 05:01:49;;;;;;;3.33;1.15;;;;;;;15.10;43.00;98488.69;5074444;28;20036;-79
2022/05/13 05:04:16;;;;;;;7.13;1.45;;;;;;;15.09;42.71;98451.03;5050602;28;20051;-81
2022/05/13 05:06:44;;;;;;;4.10;1.25;;;;;;;15.67;42.13;98478.66;5054450;28;20132;-79
2022/05/13 05:09:13;;;;;;;2.22;1.38;;;;;;;15.91;42.10;98479.47;5042675;28;20045;-80
2022/05/13 05:11:42;;;;;;;3.30;1.30;;;;;;;16.09;41.79;98470.84;5034456;28;20371;-78
2022/05/13 05:14:09;;;;;;;3.40;1.40;;;;;;;15.93;42.42;98493.44;5042360;28;20368;-78
2022/05/13 05:16:41;;;;;;;3.08;1.27;;;;;;;15.84;43.12;98489.41;5054307;28;20376;-79
2022/05/13 05:19:10;;;;;;;4.35;1.38;;;;;;;15.71;43.18;98475.88;5053985;28;20044;-78
2022/05/13 05:21:38;;;;;;;5.00;1.38;;;;;;;15.82;43.51;98491.25;5054276;28;20055;-78
2022/05/13 05:24:06;;;;;;;1.52;1.05;;;;;;;15.79;42.75;98488.75;5054030;28;20167;-79
2022/05/13 05:26:34;;;;;;;3.70;1.48;;;;;;;15.55;43.70;98496.66;5054166;28;20168;-79
2022/05/13 05:29:02;;;;;;;4.22;1.50;;;;;;;15.65;43.25;98489.25;5037121;28;20049;-78
2022/05/13 05:31:31;;;;;;;4.05;1.20;;;;;;;16.05;42.78;98487.69;5054286;28;20079;-79
2022/05/13 05:33:59;;;;;;;2.83;1.10;;;;;;;16.16;42.47;98510.97;5054179;28;20041;-78
2022/05/13 05:36:26;;;;;;;4.88;1.40;;;;;;;15.90;43.14;98502.34;5070426;28;20057;-79
2022/05/13 05:38:55;;;;;;;3.25;1.50;;;;;;;15.90;43.00;98491.81;5073311;28;20048;-79
2022/05/13 05:41:24;;;;;;;4.00;1.35;;;;;;;15.96;43.16;98517.03;5072492;28;20070;-80
2022/05/13 05:43:51;;;;;;;4.70;1.52;;;;;;;15.84;43.08;98520.16;5073358;28;20050;-78
2022/05/13 05:46:20;;;;;;;6.13;1.67;;;;;;;15.94;42.96;98511.84;5072937;28;20044;-80
2022/05/13 05:48:48;;;;;;;7.07;1.60;;;;;;;15.64;42.92;98521.75;5073240;28;20052;-80
2022/05/13 05:51:16;;;;;;;2.40;1.27;;;;;;;16.09;42.35;98523.53;5073086;28;20378;-81
2022/05/13 05:59:19;;;;;;;3.63;1.35;;;;;;;15.82;43.10;98490.41;5072623;28;20045;-78
2022/05/13 06:01:46;;;;;;;3.22;1.55;;;;;;;15.96;43.28;98517.91;5073648;28;20076;-80
2022/05/13 06:04:18;;;;;;;4.88;1.25;;;;;;;16.02;42.38;98484.31;5073564;28;20131;-82
2022/05/13 06:06:45;;;;;;;3.70;1.30;;;;;;;16.26;42.20;98514.94;5076621;28;20074;-78
2022/05/13 06:09:13;;;;;;;7.00;1.30;;;;;;;16.29;41.94;98514.81;5077493;28;20570;-78
2022/05/13 06:11:40;;;;;;;3.40;1.25;;;;;;;16.53;41.29;98518.19;5074286;28;20137;-80
2022/05/13 06:14:09;;;;;;;4.85;1.50;;;;;;;16.67;41.18;98524.66;5073644;28;20109;-78
2022/05/13 06:16:37;;;;;;;4.07;1.42;;;;;;;16.67;40.89;98522.88;5074153;28;20044;-79
2022/05/13 06:19:04;;;;;;;2.30;1.40;;;;;;;16.01;42.51;98524.75;5073698;28;20070;-81
2022/05/13 06:21:33;;;;;;;4.80;1.65;;;;;;;16.05;42.57;98527.19;5072581;28;20444;-78
2022/05/13 06:24:01;;;;;;;4.38;1.45;;;;;;;16.14;42.12;98520.72;5079669;28;20132;-78
2022/05/13 06:26:29;;;;;;;3.70;1.92;;;;;;;16.33;41.65;98520.81;5098054;28;20055;-80
2022/05/13 06:28:56;;;;;;;3.40;1.30;;;;;;;16.46;41.36;98523.78;5097820;28;20048;-79
2022/05/13 06:31:23;;;;;;;3.78;1.75;;;;;;;16.41;41.13;98516.06;5098283;28;20047;-78
2022/05/13 06:33:51;;;;;;;4.28;1.55;;;;;;;16.49;41.39;98524.50;5097500;28;20044;-79
2022/05/13 06:36:19;;;;;;;4.97;1.30;;;;;;;16.41;41.71;98516.06;5097792;28;20036;-77
2022/05/13 06:38:49;;;;;;;3.80;1.15;;;;;;;16.16;42.14;98540.78;5098201;28;20029;-78
2022/05/13 06:41:17;;;;;;;2.60;1.40;;;;;;;16.49;41.25;98528.94;5097379;28;20036;-80
2022/05/13 06:43:46;;;;;;;4.05;1.50;;;;;;;16.56;40.67;98488.19;5097540;28;20040;-78
2022/05/13 06:46:14;;;;;;;1.67;1.40;;;;;;;16.97;40.22;98522.50;5097578;28;20079;-79
2022/05/13 06:48:48;;;;;;;4.93;1.63;;;;;;;17.18;39.46;98536.53;5086297;28;20075;-77
2022/05/13 06:51:17;;;;;;;;;;;;;;;16.48;40.91;98535.13;5080531;28;20048;-77
2022/05/13 06:53:44;;;;;;;1.52;1.23;;;;;;;16.24;41.17;98547.50;5078903;28;19944;-80
2022/05/13 06:56:13;;;;;;;5.45;1.65;;;;;;;15.94;42.63;98553.13;5081302;28;20047;-77
2022/05/13 07:02:27;;;;;;;3.88;1.60;;;;;;;15.95;42.98;98581.16;5085200;28;20040;-78
2022/05/13 07:04:55;;;;;;;1.95;1.42;;;;;;;15.91;42.40;98559.34;5082414;28;20048;-79
2022/05/13 07:07:23;;;;;;;4.80;1.58;;;;;;;15.70;42.84;98553.13;5077427;28;20133;-78
2022/05/13 07:09:52;;;;;;;6.25;1.67;;;;;;;15.45;42.93;98531.28;5077031;28;20101;-80
2022/05/13 07:12:22;;;;;;;3.07;1.60;;;;;;;15.50;42.93;98559.09;5076200;28;20117;-80
2022/05/13 07:14:49;;;;;;;5.47;1.65;;;;;;;15.36;43.25;98516.69;5072583;28;20041;-79
2022/05/13 07:17:17;;;;;;;2.78;1.23;;;;;;;15.86;42.94;98557.81;5056042;28;20070;-79
2022/05/13 07:19:46;;;;;;;4.38;1.50;;;;;;;16.02;42.72;98558.91;5069978;28;20048;-79
2022/05/13 07:22:13;;;;;;;5.78;1.83;;;;;;;15.96;42.65;98557.41;5057597;28;20048;-80
2022/05/13 07:24:40;;;;;;;6.00;1.88;;;;;;;15.76;43.06;98559.94;5057358;28;20099;-80
2022/05/13 07:27:08;;;;;;;4.30;1.75;;;;;;;15.54;43.38;98528.28;5055651;28;20432;-78
2022/05/13 07:29:36;;;;;;;3.47;1.65;;;;;;;15.78;42.94;98560.72;5056156;28;20049;-80
2022/05/13 07:32:04;;;;;;;5.57;1.80;;;;;;;15.85;43.25;98574.50;5056165;28;20048;-80
2022/05/13 07:34:33;;;;;;;3.60;1.38;;;;;;;15.81;43.17;98565.91;5055974;28;20060;-81
2022/05/13 07:37:05;;;;;;;6.15;2.00;;;;;;;15.80;43.59;98560.69;5056390;28;20049;-83
2022/05/13 08:09:26;;;;;;;3.53;1.58;;;;;;;17.37;40.18;98565.59;5089947;28;20424;-78
2022/05/13 08:11:54;;;;;;;2.05;1.30;;;;;;;17.38;39.97;98569.97;5070546;28;20501;-78
2022/05/13 08:14:21;;;;;;;5.43;1.60;;;;;;;17.12;40.65;98558.78;5068652;28;20056;-80
2022/05/13 08:16:50;;;;;;;4.30;1.70;;;;;;;17.01;40.43;98554.88;5049930;28;20084;-82
2022/05/13 08:19:19;;;;;;;7.00;1.60;;;;;;;17.12;39.99;98552.63;5059117;28;20045;-81
2022/05/13 08:21:48;;;;;;;5.93;2.30;;;;;;;17.15;40.00;98548.06;5034835;28;20058;-81
2022/05/13 08:24:16;;;;;;;8.25;2.45;;;;;;;16.96;39.88;98526.91;5070296;28;20091;-79
2022/05/13 08:26:44;;;;;;;6.05;2.83;;;;;;;17.06;39.75;98553.75;5054702;28;20056;-82
2022/05/13 08:29:12;;;;;;;10.52;4.28;;;;;;;17.12;39.69;98550.88;5051929;28;20048;-78
2022/05/13 08:31:40;;;;;;;12.43;4.40;;;;;;;17.45;39.07;98562.63;5067319;28;20052;-79
2022/05/13 08:34:09;;;;;;;4.65;3.00;;;;;;;17.46;38.93;98533.47;5069591;28;20060;-78
2022/05/13 08:36:35;;;;;;;11.68;5.60;;;;;;;17.18;39.47;98539.16;5069567;28;20065;-82
2022/05/13 08:39:03;;;;;;;10.13;5.78;;;;;;;17.52;38.96;98554.31;5069691;28;20057;-80
2022/05/13 08:41:49;;;;;;;4.85;2.72;;;;;;;17.60;38.55;98520.50;5052354;28;20102;-79
2022/05/13 08:44:18;;;;;;;4.47;1.88;;;;;;;17.90;38.00;98549.09;5072588;28;20052;-79
2022/05/13 08:46:56;;;;;;;4.43;1.70;;;;;;;17.98;37.95;98554.88;5051659;28;20072;-80
2022/05/13 08:50:15;;;;;;;4.40;1.30;;;;;;;18.24;37.30;98533.38;5069470;28;20505;-82
2022/05/13 08:53:11;;;;;;;4.25;1.42;;;;;;;18.01;36.93;98553.88;5040529;28;20057;-80
2022/05/13 08:55:46;;;;;;;4.88;1.70;;;;;;;18.06;36.89;98548.34;5070022;28;20523;-80
2022/05/13 08:58:20;;;;;;;5.47;3.33;;;;;;;18.18;36.39;98542.50;5069663;28;20048;-83
2022/05/13 09:00:53;;;;;;;4.75;2.88;;;;;;;17.94;36.93;98537.47;5068977;28;20126;-82
2022/05/13 09:03:36;;;;;;;4.97;1.73;;;;;;;17.75;37.10;98528.66;5070114;28;20143;-78
2022/05/13 09:06:17;;;;;;;4.20;2.80;;;;;;;17.68;37.02;98537.78;5069876;28;20060;-81
2022/05/13 09:08:48;;;;;;;8.50;4.25;;;;;;;17.75;37.24;98547.16;5036830;28;20201;-83
2022/05/13 09:11:35;;;;;;;6.07;2.60;;;;;;;17.96;37.24;98551.44;5036146;28;20494;-78
2022/05/13 09:14:25;;;;;;;7.57;4.70;;;;;;;18.08;36.11;98531.50;5036659;28;20057;-81
2022/05/13 09:17:24;;;;;;;10.73;4.88;;;;;;;18.20;35.85;98544.13;5042671;28;20541;-79
2022/05/13 09:20:19;;;;;;;10.77;4.30;;;;;;;18.37;35.21;98561.81;5050572;28;20049;-78
2022/05/13 09:22:51;;;;;;;8.48;5.47;;;;;;;18.48;34.88;98542.75;5042201;28;20497;-80
2022/05/13 09:25:37;;;;;;;3.97;1.58;;;;;;;18.48;34.47;98541.91;5017781;28;20442;-79
2022/05/13 09:28:10;;;;;;;3.65;1.50;;;;;;;18.36;34.61;98540.72;5035429;28;20052;-81
2022/05/13 09:30:44;;;;;;;6.10;2.00;;;;;;;18.22;34.97;98559.91;5017684;28;20049;-81
2022/05/13 09:33:34;;;;;;;3.05;1.35;;;;;;;18.42;35.09;98532.50;5035321;28;20144;-82
2022/05/13 09:36:06;;;;;;;7.25;1.50;;;;;;;18.92;34.40;98541.47;5039206;28;20053;-80
2022/05/13 09:38:59;;;;;;;12.82;2.28;;;;;;;19.33;34.09;98544.56;5043887;28;20054;-78
2022/05/13 09:41:29;;;;;;;4.40;1.50;;;;;;;19.36;33.48;98536.50;5043295;28;20066;-76
2022/05/13 09:44:03;;;;;;;5.15;1.20;;;;;;;19.05;33.36;98526.66;5023231;28;20613;-79
2022/05/13 09:46:37;;;;;;;7.85;1.83;;;;;;;18.46;34.36;98527.91;5034910;28;20064;-81
2022/05/13 09:49:12;;;;;;;2.15;1.70;;;;;;;18.71;34.48;98544.22;5034700;28;20057;-83
2022/05/13 09:51:54;;;;;;;5.90;1.95;;;;;;;19.08;34.32;98544.16;5034794;28;20056;-82
2022/05/13 09:54:31;;;;;;;3.58;1.90;;;;;;;19.06;34.18;98543.38;5035831;28;20510;-79
2022/05/13 09:57:21;;;;;;;5.28;1.60;;;;;;;19.11;34.26;98544.00;5034905;28;20103;-78
2022/05/13 10:00:03;;;;;;;2.55;1.17;;;;;;;18.98;32.88;98522.63;5044535;28;20129;-81
2022/05/13 10:02:44;;;;;;;1.45;1.35;;;;;;;19.02;33.00;98548.00;5016884;28;20053;-78
2022/05/13 10:05:21;;;;;;;3.63;1.27;;;;;;;18.76;33.11;98558.09;5034585;28;20058;-79
2022/05/13 10:07:49;;;;;;;4.82;1.38;;;;;;;18.85;33.11;98543.56;5041133;28;20057;-78
2022/05/13 10:16:22;;;;;;;5.40;1.10;;;;;;;18.65;33.47;98549.84;5054056;28;20064;-82
2022/05/13 10:19:14;;;;;;;2.17;1.42;;;;;;;19.07;33.11;98553.91;5049865;28;20057;-78
2022/05/13 10:21:49;;;;;;;3.78;1.65;;;;;;;19.14;33.02;98554.44;5041277;28;20048;-81
2022/05/13 10:24:21;;;;;;;5.75;2.80;;;;;;;19.07;33.56;98555.69;5053258;28;20572;-79
2022/05/13 10:26:51;;;;;;;5.75;1.60;;;;;;;19.10;32.98;98560.81;5054193;28;20064;-78
2022/05/13 10:29:28;;;;;;;5.25;1.08;;;;;;;19.06;32.78;98546.91;5054444;28;20057;-81
2022/05/13 10:32:01;;;;;;;3.08;1.05;;;;;;;18.92;32.80;98534.38;5037073;28;20394;-80
2022/05/13 10:34:41;;;;;;;3.67;1.33;;;;;;;19.33;32.51;98549.03;5053589;28;20059;-79
2022/05/13 10:37:14;;;;;;;2.33;1.20;;;;;;;19.32;32.02;98540.22;5053665;28;20052;-81
2022/05/13 10:40:01;;;;;;;4.25;1.05;;;;;;;19.34;31.71;98532.22;5035401;28;20052;-80
2022/05/13 10:42:42;;;;;;;4.90;1.20;;;;;;;19.67;31.51;98548.06;5052941;28;20531;-81
2022/05/13 10:45:27;;;;;;;4.07;1.42;;;;;;;19.74;31.44;98535.38;5053368;28;20056;-79
2022/05/13 10:47:59;;;;;;;4.50;2.42;;;;;;;19.47;31.65;98538.56;5036086;28;20528;-77
2022/05/13 10:50:38;;;;;;;4.05;1.30;;;;;;;19.21;32.13;98547.91;5052970;28;20056;-80
2022/05/13 10:53:20;;;;;;;2.35;1.00;;;;;;;19.07;31.97;98537.16;5053511;28;20052;-81
2022/05/13 10:55:59;;;;;;;3.00;1.23;;;;;;;18.97;32.54;98550.88;5053179;28;20052;-82
2022/05/13 10:58:40;;;;;;;6.63;1.25;;;;;;;18.87;32.16;98560.22;5053208;28;20079;-82
2022/05/13 11:01:24;;;;;;;5.00;1.23;;;;;;;18.66;33.04;98556.00;5036446;28;20131;-80
2022/05/13 11:04:09;;;;;;;2.35;1.00;;;;;;;18.67;33.74;98553.28;5053036;28;20144;-81
2022/05/13 11:06:42;;;;;;;1.25;1.05;;;;;;;18.75;33.83;98552.88;5035190;28;20571;-80
2022/05/13 11:09:26;;;;;;;4.22;1.40;;;;;;;18.73;34.15;98563.53;5052886;28;20098;-80
2022/05/13 11:12:07;;;;;;;2.30;1.33;;;;;;;18.54;33.48;98520.44;5052955;28;20144;-79
2022/05/13 11:15:00;;;;;;;5.25;1.23;;;;;;;18.68;33.51;98544.41;5053515;28;20136;-80
2022/05/13 11:18:10;;;;;;;3.95;1.50;;;;;;;18.49;33.21;98515.38;5052501;28;20048;-80
2022/05/13 11:20:48;;;;;;;4.88;1.98;;;;;;;18.65;33.32;98543.69;5052439;28;20059;-77
2022/05/13 11:26:52;;;;;;;5.15;1.40;;;;;;;18.61;33.28;98519.22;5053118;28;20430;-78
2022/05/13 11:29:38;;;;;;;3.60;1.53;;;;;;;18.49;34.17;98518.03;5055149;28;20056;-82
2022/05/13 11:32:13;;;;;;;2.85;1.95;;;;;;;18.50;33.45;98517.09;5034920;28;20060;-78
2022/05/13 11:34:41;;;;;;;1.70;1.60;;;;;;;18.41;33.52;98525.47;5035050;28;20052;-80
2022/05/13 11:37:15;;;;;;;5.95;1.92;;;;;;;18.44;33.17;98533.28;5053275;28;20084;-80
2022/05/13 11:40:02;;;;;;;6.40;2.38;;;;;;;18.48;32.47;98520.75;5053957;28;20533;-79
2022/05/13 11:43:18;;;;;;;4.20;2.97;;;;;;;18.56;31.98;98524.72;5054767;28;20493;-80
2022/05/13 11:46:17;;;;;;;5.60;2.00;;;;;;;18.56;32.35;98527.38;5053107;28;20080;-81
2022/05/13 11:48:49;;;;;;;3.28;1.20;;;;;;;18.61;32.13;98527.13;5040241;28;20080;-81
2022/05/13 11:51:28;;;;;;;3.97;1.20;;;;;;;18.56;32.19;98534.44;5053240;28;20498;-80
2022/05/13 11:54:01;;;;;;;4.00;1.10;;;;;;;18.45;32.46;98524.41;5052655;28;20433;-81
2022/05/13 11:56:29;;;;;;;4.07;1.23;;;;;;;18.56;32.25;98524.72;5054816;28;20107;-80
2022/05/13 11:59:09;;;;;;;2.97;1.10;;;;;;;18.61;32.21;98522.69;5053871;28;20143;-79
2022/05/13 12:01:43;;;;;;;3.22;0.93;;;;;;;18.53;32.39;98531.94;5052258;28;20053;-83
2022/05/13 12:04:12;;;;;;;19.60;2.13;;;;;;;18.55;33.13;98512.44;5052349;28;20053;-81
2022/05/13 12:06:49;;;;;;;9.27;1.95;;;;;;;18.43;33.71;98534.19;5052106;28;20049;-80
2022/05/13 12:09:35;;;;;;;3.00;1.20;;;;;;;18.36;34.21;98528.34;5051959;28;20089;-79
2022/05/13 12:12:21;;;;;;;2.38;1.10;;;;;;;18.38;34.58;98520.34;5052921;28;20083;-80
2022/05/13 12:14:55;;;;;;;3.55;1.23;;;;;;;18.42;34.83;98532.50;5062643;28;20168;-78
2022/05/13 12:17:55;;;;;;;6.57;2.20;;;;;;;18.48;34.42;98528.69;5036652;28;20059;-78
2022/05/13 12:20:45;;;;;;;4.90;1.85;;;;;;;18.49;33.84;98533.03;5052596;28;20504;-80
2022/05/13 12:23:33;;;;;;;5.10;1.92;;;;;;;18.46;34.10;98533.19;5052373;28;20143;-80
2022/05/13 12:26:05;;;;;;;4.45;1.55;;;;;;;18.43;33.72;98526.25;5052540;28;20055;-80
2022/05/13 12:29:01;;;;;;;7.53;1.70;;;;;;;18.41;33.48;98528.13;5052073;28;20045;-81
2022/05/13 12:31:52;;;;;;;5.10;2.53;;;;;;;18.44;33.65;98522.69;5052258;28;20052;-79
2022/05/13 12:37:47;;;;;;;2.75;1.50;;;;;;;18.49;33.69;98525.94;5026303;28;20430;-78
2022/05/13 12:40:26;;;;;;;6.68;1.48;;;;;;;18.55;33.54;98524.81;5050711;28;20075;-80
2022/05/13 12:42:53;;;;;;;3.28;1.05;;;;;;;18.58;33.14;98538.72;5048239;28;20544;-81
2022/05/13 12:45:44;;;;;;;4.70;1.48;;;;;;;18.42;33.32;98521.91;5031282;28;20053;-79
2022/05/13 12:48:13;;;;;;;5.35;2.17;;;;;;;18.29;33.92;98526.09;5041150;28;20052;-79
2022/05/13 12:51:10;;;;;;;4.60;1.33;;;;;;;18.16;33.86;98539.06;5036253;28;20046;-79
2022/05/13 12:53:50;;;;;;;3.38;1.85;;;;;;;17.98;33.68;98546.06;5035946;28;20061;-80
2022/05/13 12:56:25;;;;;;;1.73;1.55;;;;;;;17.94;33.63;98549.78;4986533;28;20140;-82
2022/05/13 12:59:13;;;;;;;4.53;1.95;;;;;;;18.26;33.38;98539.44;5036404;28;20053;-79
2022/05/13 13:01:43;;;;;;;4.45;1.52;;;;;;;18.29;33.44;98528.75;5036402;28;20051;-82
2022/05/13 13:04:14;;;;;;;2.90;2.13;;;;;;;18.09;34.17;98548.19;5035933;28;20063;-80